Time;durP1;ratioP1;P1;durP2;ratioP2;P2;SDS_P1;SDS_P2;PMS_P1;PMS_P2;Temp;Humidity;BMP_temperature;BMP_pressure;BME280_temperature;BME280_humidity;BME280_pressure;Samples;Min_cycle;Max_cycle;Signal;HPM_P1;HPM_P2
2023/05/25 00:00:39;;;;;;;8.40;7.80;;;;;;;18.63;81.61;99378.19;5075646;28;20263;-68
2023/05/25 00:03:07;;;;;;;9.17;8.43;;;;;;;18.64;81.76;99372.56;5075186;28;20192;-69
2023/05/25 00:05:34;;;;;;;8.67;8.07;;;;;;;18.60;81.31;99374.13;5072054;28;20208;-68
2023/05/25 00:08:01;;;;;;;7.73;7.23;;;;;;;18.58;82.21;99372.75;5075270;28;20200;-68
2023/05/25 00:10:28;;;;;;;6.77;6.17;;;;;;;18.51;81.07;99380.19;5075245;28;20196;-68
2023/05/25 00:12:56;;;;;;;97.07;13.80;;;;;;;18.50;81.64;99373.19;5075325;28;20230;-67
2023/05/25 00:15:23;;;;;;;31.73;9.43;;;;;;;18.43;81.89;99367.16;5072679;28;20240;-67
2023/05/25 00:17:49;;;;;;;23.97;8.50;;;;;;;18.44;81.56;99379.53;5071837;28;20204;-69
2023/05/25 00:20:16;;;;;;;20.93;8.43;;;;;;;18.36;83.10;99378.09;5072191;28;20732;-68
2023/05/25 00:22:44;;;;;;;32.87;9.23;;;;;;;18.36;82.44;99382.66;5071853;28;20192;-68
2023/05/25 00:25:11;;;;;;;15.30;7.03;;;;;;;18.37;82.77;99379.72;5073350;28;20275;-68
2023/05/25 00:27:38;;;;;;;15.23;7.07;;;;;;;18.35;82.66;99379.16;5074974;28;20301;-69
2023/05/25 00:30:08;;;;;;;7.10;5.97;;;;;;;18.32;81.97;99376.94;5075097;28;20200;-67
2023/05/25 00:32:35;;;;;;;9.97;6.47;;;;;;;18.34;82.10;99374.84;5074641;28;20711;-68
2023/05/25 00:35:01;;;;;;;10.93;6.27;;;;;;;18.36;81.99;99374.59;5074515;28;20199;-67
2023/05/25 00:37:28;;;;;;;7.07;6.37;;;;;;;18.25;82.22;99376.28;5074183;28;20245;-66
2023/05/25 00:39:55;;;;;;;7.27;6.57;;;;;;;18.16;82.90;99367.03;5074965;28;20242;-67
2023/05/25 00:42:23;;;;;;;7.37;6.67;;;;;;;18.20;83.25;99370.03;5074706;28;20195;-67
2023/05/25 00:44:50;;;;;;;6.73;5.90;;;;;;;18.22;83.06;99370.63;5074250;28;20712;-67
2023/05/25 00:47:18;;;;;;;7.47;6.37;;;;;;;18.23;82.61;99374.91;5074610;28;20285;-67
2023/05/25 00:49:45;;;;;;;10.93;6.00;;;;;;;18.15;83.04;99362.72;5074353;28;20196;-67
2023/05/25 00:52:12;;;;;;;14.33;7.10;;;;;;;18.14;83.60;99371.84;5074593;28;20193;-67
2023/05/25 00:54:39;;;;;;;6.73;6.23;;;;;;;18.13;83.36;99374.78;5074011;28;20192;-67
2023/05/25 00:57:07;;;;;;;7.47;6.20;;;;;;;18.07;83.43;99365.00;5074148;28;20689;-66
2023/05/25 00:59:40;;;;;;;6.80;6.07;;;;;;;18.10;83.77;99372.59;5074218;28;20250;-66
2023/05/25 01:02:08;;;;;;;7.80;7.10;;;;;;;17.99;82.96;99366.25;5074295;28;20181;-65
2023/05/25 01:04:40;;;;;;;7.43;6.13;;;;;;;17.82;84.17;99367.31;5065802;28;20189;-65
2023/05/25 01:07:11;;;;;;;7.10;6.50;;;;;;;17.79;84.59;99374.00;5054056;28;20201;-65
2023/05/25 01:09:39;;;;;;;6.33;5.93;;;;;;;17.74;85.22;99365.88;5054497;28;20193;-64
2023/05/25 01:12:09;;;;;;;7.23;6.57;;;;;;;17.77;85.01;99372.63;5054274;28;20203;-64
2023/05/25 01:14:37;;;;;;;7.07;6.37;;;;;;;17.77;85.15;99361.88;5071485;28;20199;-64
2023/05/25 01:17:05;;;;;;;6.83;6.33;;;;;;;17.83;85.76;99372.47;5073791;28;20200;-64
2023/05/25 01:19:36;;;;;;;9.20;6.20;;;;;;;17.75;84.44;99372.03;5073809;28;20667;-65
2023/05/25 01:22:11;;;;;;;7.03;6.43;;;;;;;17.64;85.40;99359.53;5074164;28;20233;-64
2023/05/25 01:24:44;;;;;;;7.10;6.43;;;;;;;17.54;85.10;99365.53;5073111;28;20570;-64
2023/05/25 01:27:15;;;;;;;7.17;6.50;;;;;;;17.46;85.05;99354.38;5073891;28;20222;-63
2023/05/25 01:29:45;;;;;;;7.10;6.60;;;;;;;17.45;85.99;99360.81;5073717;28;20611;-63
2023/05/25 01:32:13;;;;;;;8.00;7.03;;;;;;;17.44;85.77;99361.88;5073345;28;20274;-63
2023/05/25 01:34:43;;;;;;;7.83;7.17;;;;;;;17.46;85.93;99355.22;5073145;28;20705;-63
2023/05/25 01:37:12;;;;;;;7.73;7.13;;;;;;;17.51;85.96;99354.50;5073719;28;20336;-63
2023/05/25 01:39:39;;;;;;;8.50;7.10;;;;;;;17.51;86.18;99355.28;5073494;28;20191;-63
2023/05/25 01:42:06;;;;;;;7.70;7.10;;;;;;;17.49;86.07;99356.59;5073329;28;20231;-63
2023/05/25 01:44:33;;;;;;;8.00;7.27;;;;;;;17.42;86.78;99350.56;5073312;28;20665;-63
2023/05/25 01:47:05;;;;;;;8.43;7.60;;;;;;;17.46;86.54;99354.38;5073283;28;20220;-63
2023/05/25 01:49:37;;;;;;;7.80;7.20;;;;;;;17.43;86.66;99357.56;5073140;28;20186;-63
2023/05/25 01:52:12;;;;;;;7.30;6.80;;;;;;;17.10;86.86;99304.63;5072702;28;20182;-64
2023/05/25 01:54:47;;;;;;;7.63;7.03;;;;;;;17.38;87.32;99349.38;5073229;28;20666;-64
2023/05/25 01:57:15;;;;;;;8.80;8.10;;;;;;;17.52;86.66;99361.47;5072936;28;20188;-65
2023/05/25 01:59:44;;;;;;;8.83;7.17;;;;;;;17.53;86.66;99365.78;5073299;28;20300;-64
2023/05/25 02:02:12;;;;;;;8.00;7.20;;;;;;;17.48;87.60;99368.38;5072224;28;20195;-65
2023/05/25 02:04:40;;;;;;;8.30;7.17;;;;;;;17.45;86.68;99363.50;5073270;28;20200;-65
2023/05/25 02:07:07;;;;;;;8.20;7.40;;;;;;;17.47;86.92;99364.09;5072951;28;20285;-64
2023/05/25 02:09:33;;;;;;;9.60;7.63;;;;;;;17.45;87.22;99368.88;5072925;28;20203;-65
2023/05/25 02:12:02;;;;;;;8.10;7.23;;;;;;;17.39;87.41;99375.19;5072513;28;20198;-64
2023/05/25 02:14:29;;;;;;;7.50;6.73;;;;;;;17.36;86.94;99381.03;5073221;28;20249;-65
2023/05/25 02:16:56;;;;;;;7.00;6.50;;;;;;;17.31;88.19;99378.28;5072890;28;20192;-65
2023/05/25 02:19:23;;;;;;;7.77;6.77;;;;;;;17.34;88.24;99377.78;5072914;28;20571;-65
2023/05/25 02:21:49;;;;;;;7.30;6.70;;;;;;;17.40;87.76;99371.44;5071839;28;20196;-64
2023/05/25 02:24:17;;;;;;;7.63;6.87;;;;;;;17.46;87.36;99370.50;5072758;28;20201;-65
2023/05/25 02:26:44;;;;;;;7.27;6.57;;;;;;;17.52;86.84;99374.91;5072419;28;20226;-64
2023/05/25 02:29:12;;;;;;;6.70;6.13;;;;;;;17.45;86.71;99364.31;5072743;28;20250;-64
2023/05/25 02:31:38;;;;;;;10.97;7.10;;;;;;;17.51;86.59;99370.59;5071805;28;20675;-65
2023/05/25 02:34:05;;;;;;;7.17;6.50;;;;;;;17.53;87.06;99382.72;5072675;28;20234;-65
2023/05/25 02:36:33;;;;;;;11.30;7.00;;;;;;;17.34;87.21;99358.97;5072302;28;20188;-64
2023/05/25 02:39:00;;;;;;;6.93;6.33;;;;;;;17.46;87.50;99375.88;5072479;28;20206;-65
2023/05/25 02:41:26;;;;;;;10.43;6.60;;;;;;;17.37;88.53;99383.50;5071823;28;20195;-65
2023/05/25 02:43:53;;;;;;;7.23;6.50;;;;;;;17.30;88.01;99376.63;5072167;28;20257;-66
2023/05/25 02:46:22;;;;;;;6.83;6.43;;;;;;;17.18;87.33;99378.56;5072612;28;20197;-66
2023/05/25 02:48:49;;;;;;;7.57;5.97;;;;;;;17.05;87.95;99378.84;5071694;28;20300;-66
2023/05/25 02:51:15;;;;;;;7.10;6.40;;;;;;;16.84;88.20;99376.84;5072475;28;20247;-66
2023/05/25 02:53:42;;;;;;;9.67;6.37;;;;;;;16.63;89.80;99358.72;5072005;28;20196;-66
2023/05/25 02:56:10;;;;;;;8.70;7.83;;;;;;;16.76;89.87;99380.72;5072023;28;20715;-66
2023/05/25 02:58:37;;;;;;;7.03;6.40;;;;;;;16.73;90.01;99383.88;5071090;28;20671;-66
2023/05/25 03:01:04;;;;;;;6.87;6.20;;;;;;;16.69;90.18;99384.56;5072102;28;20221;-66
2023/05/25 03:03:32;;;;;;;7.00;6.40;;;;;;;16.75;90.48;99379.09;5071886;28;20674;-64
2023/05/25 03:05:59;;;;;;;7.20;6.40;;;;;;;16.78;90.46;99391.22;5072297;28;20193;-65
2023/05/25 03:08:26;;;;;;;7.43;6.90;;;;;;;16.83;91.29;99389.47;5071244;28;20711;-64
2023/05/25 03:10:52;;;;;;;8.10;6.97;;;;;;;16.93;90.95;99397.69;5071771;28;20235;-63
2023/05/25 03:13:19;;;;;;;7.70;6.93;;;;;;;16.99;90.68;99395.94;5071782;28;20252;-64
2023/05/25 03:15:46;;;;;;;8.70;7.20;;;;;;;17.07;89.63;99407.06;5071753;28;20733;-65
2023/05/25 03:18:12;;;;;;;11.87;6.77;;;;;;;17.06;89.80;99407.34;5072065;28;20196;-65
2023/05/25 03:20:41;;;;;;;12.20;6.60;;;;;;;17.13;89.76;99402.63;5071168;28;20295;-65
2023/05/25 03:23:07;;;;;;;7.53;6.60;;;;;;;17.19;89.15;99401.69;5071897;28;20196;-65
2023/05/25 03:25:34;;;;;;;7.13;6.50;;;;;;;17.24;88.91;99409.81;5072017;28;20200;-66
2023/05/25 03:28:01;;;;;;;7.47;6.13;;;;;;;17.24;88.32;99410.66;5072189;28;20296;-66
2023/05/25 03:30:28;;;;;;;12.97;6.97;;;;;;;17.21;87.51;99416.50;5071362;28;20258;-66
2023/05/25 03:32:55;;;;;;;6.20;5.63;;;;;;;17.25;87.92;99406.91;5068653;28;20707;-65
2023/05/25 03:35:21;;;;;;;6.80;6.20;;;;;;;17.36;87.08;99413.25;5071199;28;20659;-65
2023/05/25 03:37:50;;;;;;;6.10;5.60;;;;;;;17.48;86.59;99406.00;5071243;28;20737;-66
2023/05/25 03:40:16;;;;;;;8.53;6.03;;;;;;;17.58;87.04;99406.16;5066649;28;20244;-67
2023/05/25 03:42:43;;;;;;;6.70;6.03;;;;;;;17.62;86.40;99401.91;5064678;28;20196;-66
2023/05/25 03:45:11;;;;;;;6.40;5.13;;;;;;;17.70;86.28;99401.53;5071002;28;20200;-66
2023/05/25 03:47:37;;;;;;;7.10;6.40;;;;;;;17.81;84.75;99406.00;5071026;28;20695;-66
2023/05/25 03:50:05;;;;;;;11.63;5.87;;;;;;;17.79;84.22;99402.75;5071360;28;20208;-68
2023/05/25 03:52:32;;;;;;;6.60;6.10;;;;;;;17.95;85.13;99409.97;5068184;28;20196;-67
2023/05/25 03:55:03;;;;;;;6.40;5.70;;;;;;;18.08;83.28;99413.16;5061392;28;20192;-67
2023/05/25 03:57:30;;;;;;;6.80;5.63;;;;;;;18.24;83.74;99412.31;5062606;28;20208;-68
2023/05/25 03:59:56;;;;;;;6.43;5.93;;;;;;;18.45;82.84;99416.13;5060038;28;20700;-68
2023/05/25 04:02:23;;;;;;;16.30;6.40;;;;;;;18.72;82.03;99419.72;5070743;28;20204;-68
2023/05/25 04:04:52;;;;;;;14.10;6.80;;;;;;;19.14;80.72;99421.59;5071089;28;20246;-67
2023/05/25 04:07:19;;;;;;;6.80;5.97;;;;;;;19.71;77.57;99435.38;5071044;28;20332;-67
2023/05/25 04:09:46;;;;;;;7.50;5.23;;;;;;;20.05;74.57;99431.38;5070508;28;20672;-71
2023/05/25 04:12:14;;;;;;;10.63;5.73;;;;;;;20.26;73.02;99436.66;5072670;28;20202;-72
2023/05/25 04:14:41;;;;;;;13.57;6.10;;;;;;;20.39;72.35;99438.09;5072075;28;20686;-73
2023/05/25 04:17:08;;;;;;;6.40;5.67;;;;;;;20.57;71.77;99440.34;5075178;28;20214;-72
2023/05/25 04:19:35;;;;;;;6.40;5.80;;;;;;;20.67;70.60;99445.81;5071609;28;20683;-73
2023/05/25 04:22:01;;;;;;;26.90;6.00;;;;;;;20.85;69.80;99452.63;5073879;28;20196;-73
2023/05/25 04:24:28;;;;;;;10.00;5.83;;;;;;;20.93;70.62;99450.28;5071535;28;20645;-70
2023/05/25 04:26:55;;;;;;;8.70;5.73;;;;;;;21.07;69.71;99456.81;5063660;28;20195;-70
2023/05/25 04:29:23;;;;;;;11.70;5.43;;;;;;;21.23;68.85;99455.00;5060872;28;20193;-64
2023/05/25 04:31:50;;;;;;;7.37;4.77;;;;;;;21.49;71.69;99449.38;5071965;28;20191;-64
2023/05/25 04:34:17;;;;;;;12.57;4.60;;;;;;;21.93;69.00;99444.31;5073833;28;20285;-64
2023/05/25 04:36:43;;;;;;;7.93;5.10;;;;;;;22.49;66.07;99452.13;5073995;28;20238;-64
2023/05/25 04:39:10;;;;;;;23.90;6.33;;;;;;;23.35;62.76;99464.31;5072920;28;20204;-65
2023/05/25 04:41:38;;;;;;;6.00;5.60;;;;;;;23.95;58.44;99474.78;5072664;28;20196;-66
2023/05/25 04:44:04;;;;;;;9.60;5.80;;;;;;;24.44;57.56;99471.91;5072816;28;20193;-65
2023/05/25 04:46:36;;;;;;;5.00;4.60;;;;;;;25.20;55.93;99474.63;5073050;28;20196;-66
2023/05/25 04:49:03;;;;;;;5.67;5.27;;;;;;;25.81;51.49;99468.09;5072104;28;20566;-65
2023/05/25 04:51:31;;;;;;;10.53;5.67;;;;;;;25.46;51.77;99460.44;5070608;28;20204;-66
2023/05/25 04:53:58;;;;;;;10.20;5.13;;;;;;;25.24;52.97;99464.78;5061797;28;20264;-66
2023/05/25 04:56:25;;;;;;;11.07;5.07;;;;;;;25.26;52.72;99454.41;5059636;28;20758;-65
2023/05/25 04:58:52;;;;;;;5.73;5.37;;;;;;;25.66;51.90;99462.03;5071638;28;20638;-65
2023/05/25 05:01:19;;;;;;;54.73;7.80;;;;;;;26.15;50.03;99465.09;5072544;28;20675;-66
2023/05/25 05:03:47;;;;;;;18.77;6.90;;;;;;;26.39;49.38;99463.03;5071603;28;20295;-66
2023/05/25 05:06:15;;;;;;;5.77;5.20;;;;;;;26.47;47.89;99463.19;5053972;28;20254;-64
2023/05/25 05:08:42;;;;;;;11.90;5.20;;;;;;;26.49;47.79;99460.94;5053823;28;20282;-64
2023/05/25 05:11:08;;;;;;;5.43;4.47;;;;;;;26.43;47.53;99456.72;5072885;28;20282;-64
2023/05/25 05:13:35;;;;;;;9.30;4.77;;;;;;;26.30;48.54;99456.69;5058175;28;20656;-63
2023/05/25 05:16:02;;;;;;;8.20;5.10;;;;;;;25.80;50.80;99446.59;5053941;28;20193;-65
2023/05/25 05:18:28;;;;;;;12.60;5.73;;;;;;;25.72;50.11;99450.00;5054082;28;20261;-65
2023/05/25 05:20:57;;;;;;;9.03;5.27;;;;;;;26.04;49.06;99450.06;5070812;28;20192;-64
2023/05/25 05:23:23;;;;;;;7.97;5.37;;;;;;;25.97;50.18;99449.63;5072409;28;20250;-64
2023/05/25 05:25:50;;;;;;;6.40;4.63;;;;;;;26.02;48.98;99449.53;5073352;28;20249;-63
2023/05/25 05:28:16;;;;;;;5.07;4.57;;;;;;;25.96;48.55;99451.53;5071754;28;20215;-68
2023/05/25 05:30:45;;;;;;;14.67;5.63;;;;;;;25.51;49.95;99454.13;5072887;28;20206;-67
2023/05/25 05:33:12;;;;;;;11.27;5.13;;;;;;;25.23;50.93;99452.28;5072123;28;20231;-67
2023/05/25 05:35:38;;;;;;;6.80;5.13;;;;;;;25.52;51.87;99453.78;5066405;28;20190;-68
2023/05/25 05:38:07;;;;;;;11.60;5.10;;;;;;;25.49;51.58;99446.25;5068926;28;20199;-70
2023/05/25 05:40:33;;;;;;;5.90;4.67;;;;;;;26.00;50.08;99457.19;5067213;28;20256;-69
2023/05/25 05:43:00;;;;;;;8.07;4.87;;;;;;;26.77;49.12;99461.81;5071650;28;20180;-69
2023/05/25 05:45:27;;;;;;;5.73;5.17;;;;;;;27.38;45.70;99467.66;5071916;28;20222;-68
2023/05/25 05:47:53;;;;;;;7.67;4.70;;;;;;;27.49;48.18;99460.88;5071494;28;20228;-72
2023/05/25 05:50:20;;;;;;;8.17;4.87;;;;;;;27.64;47.48;99455.09;5070786;28;20847;-66
2023/05/25 05:52:47;;;;;;;29.53;6.27;;;;;;;26.88;47.54;99458.59;5070444;28;20192;-68
2023/05/25 05:55:16;;;;;;;14.30;4.70;;;;;;;27.52;47.09;99460.28;5070676;28;20207;-69
2023/05/25 05:57:43;;;;;;;8.50;5.13;;;;;;;27.99;46.42;99460.53;5070659;28;20222;-64
2023/05/25 06:00:11;;;;;;;7.87;5.67;;;;;;;28.13;46.16;99457.75;5070718;28;20245;-67
2023/05/25 06:02:38;;;;;;;21.87;5.37;;;;;;;28.31;45.85;99459.47;5068956;28;20232;-69
2023/05/25 06:05:05;;;;;;;6.50;4.23;;;;;;;28.60;44.87;99457.88;5071363;28;20247;-64
2023/05/25 06:07:34;;;;;;;15.43;5.37;;;;;;;28.75;44.44;99460.19;5070585;28;20188;-66
2023/05/25 06:10:00;;;;;;;6.60;5.17;;;;;;;28.83;42.57;99473.09;5071244;28;20191;-64
2023/05/25 06:12:28;;;;;;;14.67;5.27;;;;;;;28.10;43.79;99458.34;5065441;28;20612;-64
2023/05/25 06:14:55;;;;;;;16.40;9.17;;;;;;;26.94;45.64;99457.38;5071537;28;20192;-65
2023/05/25 06:17:23;;;;;;;31.37;5.97;;;;;;;26.33;47.49;99461.53;5071010;28;20214;-63
2023/05/25 06:19:50;;;;;;;16.37;4.80;;;;;;;25.73;49.14;99446.16;5070810;28;20667;-65
2023/05/25 06:22:16;;;;;;;22.17;6.30;;;;;;;24.90;51.66;99449.44;5068624;28;20188;-65
2023/05/25 06:24:43;;;;;;;6.57;4.90;;;;;;;24.77;52.26;99452.84;5070809;28;20192;-78
2023/05/25 06:27:11;;;;;;;10.87;5.13;;;;;;;25.38;53.47;99454.81;5069206;28;20201;-64
2023/05/25 06:29:39;;;;;;;12.43;5.43;;;;;;;25.52;51.32;99456.50;5067449;28;20218;-66
2023/05/25 06:32:07;;;;;;;13.47;5.90;;;;;;;25.61;50.27;99465.66;5065032;28;20261;-65
2023/05/25 06:34:33;;;;;;;11.13;5.20;;;;;;;25.33;51.50;99463.06;5067970;28;20207;-66
2023/05/25 06:37:00;;;;;;;9.80;5.40;;;;;;;25.91;49.58;99467.09;5063288;28;20203;-64
2023/05/25 06:39:27;;;;;;;10.53;4.83;;;;;;;26.39;50.11;99477.50;5068266;28;20206;-64
2023/05/25 06:41:54;;;;;;;5.37;4.57;;;;;;;26.88;49.12;99466.78;5068279;28;20199;-71
2023/05/25 06:44:20;;;;;;;6.27;5.17;;;;;;;27.34;46.61;99474.84;5067696;28;20219;-65
2023/05/25 06:46:49;;;;;;;4.93;4.47;;;;;;;27.06;46.73;99476.75;5067683;28;20200;-63
2023/05/25 06:49:15;;;;;;;9.13;5.20;;;;;;;26.99;47.48;99464.66;5067719;28;20231;-64
2023/05/25 06:51:42;;;;;;;8.07;4.70;;;;;;;26.64;50.00;99457.16;5067659;28;20208;-65
2023/05/25 06:54:10;;;;;;;5.07;4.57;;;;;;;26.92;49.42;99459.63;5067158;28;20250;-65
2023/05/25 06:56:37;;;;;;;13.37;5.00;;;;;;;27.16;48.70;99457.44;5065352;28;20577;-66
2023/05/25 06:59:04;;;;;;;4.80;4.43;;;;;;;27.45;48.17;99455.25;5067020;28;20225;-65
2023/05/25 07:01:30;;;;;;;7.40;4.67;;;;;;;27.65;45.90;99462.16;5067722;28;20195;-65
2023/05/25 07:03:58;;;;;;;10.27;5.17;;;;;;;27.42;45.86;99460.47;5067304;28;20628;-67
2023/05/25 07:06:25;;;;;;;4.90;3.93;;;;;;;27.01;50.19;99454.25;5068019;28;20249;-64
2023/05/25 07:08:52;;;;;;;9.73;5.43;;;;;;;27.19;47.26;99454.13;5060803;28;20219;-65
2023/05/25 07:11:20;;;;;;;7.23;4.70;;;;;;;27.80;45.97;99453.59;5067092;28;20680;-65
2023/05/25 07:13:47;;;;;;;9.33;4.70;;;;;;;28.22;43.47;99464.06;5068231;28;20230;-64
2023/05/25 07:16:14;;;;;;;22.03;5.87;;;;;;;28.46;42.98;99470.03;5066448;28;20203;-66
2023/05/25 07:18:41;;;;;;;6.57;4.83;;;;;;;28.68;42.91;99459.03;5067454;28;20196;-65
2023/05/25 07:21:09;;;;;;;12.87;4.37;;;;;;;28.72;40.52;99470.97;5068886;28;20197;-66
2023/05/25 07:23:36;;;;;;;12.20;5.23;;;;;;;28.76;42.42;99471.94;5069442;28;20255;-66
2023/05/25 07:26:02;;;;;;;7.40;4.60;;;;;;;29.18;39.50;99465.84;5070211;28;20184;-63
2023/05/25 07:28:29;;;;;;;13.97;5.07;;;;;;;29.18;38.99;99463.09;5061685;28;20215;-65
2023/05/25 07:30:56;;;;;;;14.80;5.10;;;;;;;29.40;40.57;99459.44;5070639;28;20687;-63
2023/05/25 07:33:23;;;;;;;6.37;3.73;;;;;;;29.91;38.87;99460.31;5069588;28;20219;-66
2023/05/25 07:35:50;;;;;;;6.13;3.87;;;;;;;30.42;37.18;99460.25;5069262;28;20187;-65
2023/05/25 07:38:19;;;;;;;7.20;4.00;;;;;;;30.30;36.97;99449.19;5068943;28;20659;-66
2023/05/25 07:40:46;;;;;;;17.73;5.07;;;;;;;30.65;35.70;99458.88;5068325;28;20200;-65
2023/05/25 07:43:13;;;;;;;30.10;5.37;;;;;;;30.33;35.70;99455.94;5065505;28;20225;-65
2023/05/25 07:45:40;;;;;;;44.87;6.90;;;;;;;30.42;36.34;99460.25;5066753;28;20233;-67
2023/05/25 07:48:08;;;;;;;27.93;5.93;;;;;;;30.82;35.84;99458.84;5074035;28;20200;-64
2023/05/25 07:50:35;;;;;;;26.80;4.93;;;;;;;31.20;36.21;99459.63;5071386;28;20203;-68
2023/05/25 07:53:01;;;;;;;4.93;3.50;;;;;;;31.44;35.44;99459.81;5068284;28;20195;-65
2023/05/25 07:55:29;;;;;;;9.43;4.20;;;;;;;31.64;34.64;99456.28;5067301;28;20192;-65
2023/05/25 07:57:56;;;;;;;22.53;5.17;;;;;;;31.84;34.06;99458.25;5072371;28;20257;-66
2023/05/25 08:00:23;;;;;;;4.70;3.83;;;;;;;31.66;33.26;99456.75;5072474;28;20733;-66
2023/05/25 08:02:50;;;;;;;5.20;3.77;;;;;;;31.56;34.61;99456.38;5073475;28;20196;-66
2023/05/25 08:05:17;;;;;;;8.87;4.20;;;;;;;31.65;34.30;99455.13;5074025;28;20253;-66
2023/05/25 08:07:44;;;;;;;7.17;4.20;;;;;;;31.55;34.36;99466.53;5072993;28;20200;-67
2023/05/25 08:10:11;;;;;;;8.37;4.60;;;;;;;31.38;34.91;99460.34;5073223;28;20595;-66
2023/05/25 08:12:40;;;;;;;15.27;4.60;;;;;;;31.27;35.70;99459.94;5073838;28;20214;-64
2023/05/25 08:15:07;;;;;;;8.93;4.40;;;;;;;31.21;36.73;99466.72;5074289;28;20192;-65
2023/05/25 08:17:34;;;;;;;19.87;5.10;;;;;;;31.10;36.03;99459.19;5073455;28;20188;-66
2023/05/25 08:20:05;;;;;;;16.87;5.17;;;;;;;30.80;35.91;99452.91;5074317;28;20199;-67
2023/05/25 08:22:31;;;;;;;92.80;8.73;;;;;;;30.72;36.88;99453.75;5074537;28;20275;-65
2023/05/25 08:24:58;;;;;;;13.03;4.10;;;;;;;30.62;37.15;99445.81;5072686;28;20689;-65
2023/05/25 08:27:25;;;;;;;16.07;4.47;;;;;;;29.86;37.84;99448.69;5067482;28;20615;-65
2023/05/25 08:29:53;;;;;;;8.13;4.10;;;;;;;30.03;38.53;99441.28;5056747;28;20221;-66
2023/05/25 08:32:20;;;;;;;7.73;3.83;;;;;;;30.12;39.21;99442.06;5068455;28;20215;-66
2023/05/25 08:34:46;;;;;;;8.53;4.00;;;;;;;30.03;39.30;99441.28;5073679;28;20238;-66
2023/05/25 08:37:13;;;;;;;10.93;4.97;;;;;;;30.12;39.07;99442.06;5068025;28;20192;-65
2023/05/25 08:39:40;;;;;;;9.10;4.20;;;;;;;30.23;39.19;99440.63;5073396;28;20238;-66
2023/05/25 08:42:07;;;;;;;4.73;3.80;;;;;;;30.47;38.88;99435.41;5072882;28;20265;-65
2023/05/25 08:44:35;;;;;;;6.50;4.40;;;;;;;30.00;38.33;99441.13;5072563;28;20196;-67
2023/05/25 08:47:06;;;;;;;8.07;5.67;;;;;;;29.75;39.94;99440.00;5072158;28;20755;-67
2023/05/25 08:49:37;;;;;;;7.67;4.67;;;;;;;30.28;39.11;99426.75;5071709;28;20219;-67
2023/05/25 08:52:04;;;;;;;5.37;4.60;;;;;;;30.39;38.50;99428.03;5070382;28;20175;-67
2023/05/25 08:54:35;;;;;;;7.33;4.30;;;;;;;30.31;37.74;99431.59;5072950;28;20191;-70
2023/05/25 08:57:09;;;;;;;6.93;4.83;;;;;;;30.66;38.00;99433.06;5072368;28;20636;-68
2023/05/25 08:59:42;;;;;;;5.77;4.40;;;;;;;30.98;37.83;99426.97;5072176;28;20821;-67
2023/05/25 09:02:21;;;;;;;11.80;5.00;;;;;;;31.15;37.16;99428.84;5072735;28;20187;-66
2023/05/25 09:04:48;;;;;;;5.40;4.90;;;;;;;31.24;37.00;99432.34;5073039;28;20267;-67
2023/05/25 09:07:15;;;;;;;6.97;4.83;;;;;;;31.20;36.91;99434.13;5072652;28;20254;-68
2023/05/25 09:09:42;;;;;;;10.57;4.07;;;;;;;31.55;36.05;99433.56;5071726;28;20772;-68
2023/05/25 09:12:10;;;;;;;4.80;4.50;;;;;;;31.86;35.11;99433.19;5072551;28;20203;-68
2023/05/25 09:14:38;;;;;;;5.57;4.70;;;;;;;32.12;33.95;99425.47;5072622;28;20192;-67
2023/05/25 09:17:05;;;;;;;10.47;5.10;;;;;;;32.39;33.43;99425.72;5070648;28;20242;-68
2023/05/25 09:19:35;;;;;;;3.97;3.53;;;;;;;32.47;32.56;99424.78;5069154;28;20634;-67
2023/05/25 09:22:02;;;;;;;4.60;3.80;;;;;;;32.22;33.25;99414.84;5068055;28;20253;-71
2023/05/25 09:24:29;;;;;;;8.23;4.23;;;;;;;32.36;34.10;99415.41;5063652;28;20234;-65
2023/05/25 09:26:56;;;;;;;3.90;3.60;;;;;;;32.58;32.94;99414.19;5063639;28;20224;-69
2023/05/25 09:29:23;;;;;;;5.83;3.67;;;;;;;32.76;31.41;99413.63;5067447;28;20212;-69
2023/05/25 09:31:49;;;;;;;4.10;3.43;;;;;;;32.21;31.75;99417.97;5068308;28;20664;-66
2023/05/25 09:34:16;;;;;;;3.70;3.33;;;;;;;32.06;33.82;99405.66;5071397;28;20308;-67
2023/05/25 09:36:44;;;;;;;4.27;3.60;;;;;;;31.85;32.65;99407.63;5071747;28;20192;-66
2023/05/25 09:39:12;;;;;;;4.17;3.60;;;;;;;32.37;31.71;99416.19;5070962;28;20254;-69
2023/05/25 09:41:41;;;;;;;16.80;4.40;;;;;;;32.38;30.79;99413.09;5070779;28;20275;-69
2023/05/25 09:44:08;;;;;;;5.40;3.53;;;;;;;32.09;32.18;99399.47;5054718;28;20251;-71
2023/05/25 09:46:37;;;;;;;4.50;3.57;;;;;;;32.37;30.96;99403.25;5051578;28;20205;-69
2023/05/25 09:49:05;;;;;;;4.17;3.87;;;;;;;32.13;30.44;99394.91;5051642;28;20286;-67
2023/05/25 09:51:32;;;;;;;4.20;2.93;;;;;;;32.07;32.24;99384.47;5054239;28;20200;-68
2023/05/25 09:54:01;;;;;;;4.33;3.10;;;;;;;32.07;32.23;99377.03;5061940;28;20218;-70
2023/05/25 09:56:27;;;;;;;4.70;3.47;;;;;;;31.93;32.33;99379.28;5071064;28;20192;-66
2023/05/25 09:58:56;;;;;;;3.90;3.57;;;;;;;31.94;33.63;99372.66;5066772;28;20192;-67
2023/05/25 10:01:23;;;;;;;13.20;3.70;;;;;;;31.71;31.99;99376.06;5066025;28;20188;-66
2023/05/25 10:03:50;;;;;;;6.60;3.53;;;;;;;31.65;32.93;99377.44;5050782;28;20644;-74
2023/05/25 10:06:17;;;;;;;6.57;3.07;;;;;;;31.82;32.93;99361.63;5061326;28;20275;-69
2023/05/25 10:08:44;;;;;;;8.03;3.50;;;;;;;31.98;31.03;99370.03;5066968;28;20612;-72
2023/05/25 10:11:14;;;;;;;4.90;3.40;;;;;;;31.99;31.83;99371.63;5065331;28;20711;-65
2023/05/25 10:13:44;;;;;;;12.80;3.67;;;;;;;31.99;32.15;99364.19;5067444;28;20184;-68
2023/05/25 10:16:17;;;;;;;3.93;3.20;;;;;;;31.96;32.70;99367.59;5071574;28;20191;-67
2023/05/25 10:18:48;;;;;;;17.30;4.13;;;;;;;31.81;30.80;99364.69;5067131;28;20199;-65
2023/05/25 10:21:17;;;;;;;6.93;3.87;;;;;;;31.56;31.14;99362.97;5064728;28;20212;-65
2023/05/25 10:23:46;;;;;;;5.13;3.47;;;;;;;31.44;31.33;99360.94;5066417;28;20223;-73
2023/05/25 10:26:20;;;;;;;4.07;3.70;;;;;;;31.19;30.99;99364.69;5064415;28;20578;-67
2023/05/25 10:28:51;;;;;;;6.23;3.13;;;;;;;31.24;31.08;99361.75;5059393;28;20238;-67
2023/05/25 10:31:18;;;;;;;3.47;3.27;;;;;;;31.33;30.63;99376.25;5060772;28;20229;-66
2023/05/25 10:33:46;;;;;;;10.17;3.77;;;;;;;31.28;30.69;99379.16;5062591;28;20223;-70
2023/05/25 10:36:13;;;;;;;3.80;3.50;;;;;;;31.46;31.60;99369.69;5060072;28;20200;-66
2023/05/25 10:38:43;;;;;;;6.83;3.53;;;;;;;31.41;31.08;99383.63;5063849;28;20621;-66
2023/05/25 10:41:11;;;;;;;3.43;3.13;;;;;;;31.29;31.58;99379.97;5062144;28;20283;-66
2023/05/25 10:43:40;;;;;;;8.47;3.83;;;;;;;31.04;31.62;99373.53;5069338;28;20195;-68
2023/05/25 10:46:07;;;;;;;4.00;3.67;;;;;;;30.57;31.79;99369.22;5068719;28;20241;-67
2023/05/25 10:48:37;;;;;;;6.27;3.40;;;;;;;30.53;31.81;99371.00;5069106;28;20263;-67
2023/05/25 10:51:05;;;;;;;3.63;3.43;;;;;;;30.30;31.52;99350.50;5059585;28;20219;-66
2023/05/25 10:53:32;;;;;;;3.77;3.17;;;;;;;30.03;32.49;99367.31;5069784;28;20247;-67
2023/05/25 10:56:03;;;;;;;11.17;3.77;;;;;;;29.95;34.66;99368.13;5070132;28;20196;-67
2023/05/25 10:58:30;;;;;;;3.73;3.43;;;;;;;29.83;33.68;99365.25;5068444;28;20188;-66
2023/05/25 11:01:00;;;;;;;4.63;2.90;;;;;;;29.72;34.42;99363.97;5065177;28;20227;-66
2023/05/25 11:03:55;;;;;;;4.70;3.60;;;;;;;29.57;33.93;99361.75;5068632;28;20216;-64
2023/05/25 11:06:23;;;;;;;4.17;3.17;;;;;;;29.35;35.09;99363.81;5069415;28;20292;-64
2023/05/25 11:08:53;;;;;;;6.03;3.63;;;;;;;28.98;33.87;99354.22;5069251;28;20595;-64
2023/05/25 11:11:21;;;;;;;3.27;3.10;;;;;;;28.74;34.81;99362.88;5070991;28;20219;-64
2023/05/25 11:13:49;;;;;;;3.40;3.20;;;;;;;28.40;35.58;99368.19;5068569;28;20241;-64
2023/05/25 11:16:23;;;;;;;3.97;3.57;;;;;;;28.08;37.37;99363.06;5059523;28;20200;-65
2023/05/25 11:18:52;;;;;;;5.13;4.00;;;;;;;28.23;38.52;99364.59;5068520;28;20192;-68
2023/05/25 11:21:41;;;;;;;6.97;4.00;;;;;;;28.29;39.09;99368.78;5070647;28;20192;-67
2023/05/25 11:24:17;;;;;;;6.33;4.13;;;;;;;28.30;39.56;99364.94;5069263;28;20212;-66
2023/05/25 11:26:55;;;;;;;6.37;4.10;;;;;;;28.33;39.92;99372.50;5066779;28;20176;-69
2023/05/25 11:29:24;;;;;;;3.47;3.17;;;;;;;28.32;39.99;99370.88;5060483;28;20195;-66
2023/05/25 11:31:54;;;;;;;4.90;4.43;;;;;;;28.32;40.14;99357.22;5058676;28;20192;-75
2023/05/25 11:34:23;;;;;;;4.13;3.80;;;;;;;28.37;40.44;99370.75;5060000;28;20722;-66